Main page
METAR-TAF:

METAR-TAF

Airports :

Bahrain International Airport

Bahrain, Bahrain

latitude: 26-16N, longitude: 050-39E, elevation: 2 m

Current weather observation

The report was made 28 minutes ago, at 06:30 UTC
Wind 18 kt from the North/Northwest
Temperature 36°C
Humidity 42%
Pressure 1001 hPa
Visibility 10 km or more
no clouds below 1500 m and no cumulonimbus

METAR: OBBI 190630Z 33018KT CAVOK 36/21 Q1001 NOSIG

Time: 09:58 (06:58 UTC)

Forecast

The report was made 1 hour and 58 minutes ago, at 05:00 UTC
Forecast valid from 19 at 06 UTC to 20 at 12 UTC
Wind 17 kt from the North/Northwest with gusts up to 27 kt
Visibility 10 km or more
no clouds below 1500 m and no cumulonimbus
Becoming
from 19 at 15 UTC to 19 at 17 UTC
Wind 10 kt from the West/Northwest
Becoming
from 20 at 04 UTC to 20 at 06 UTC
Wind 15 kt from the North/Northwest with gusts up to 25 kt

TAF: OBBI 190500Z 1906/2012 33017G27KT CAVOK BECMG 1915/1917 30010KT BECMG 2004/2006 33015G25KT

Weather observations and forecasts of more than 4000 airports (METAR and TAF reports).

The available stations are represented by yellow and red dots on the map.

Hover mouse over dot to see the name of the station.

Then click to see weather observations and forecasts.

To change the map : click on the green buttons with a black cross to zoom in, on the green button with a dash to zoom out, or on the green arrows for adjacent maps.


METAR-TAF: